createdAt,value
2022-09-20T00:03:43.191Z,9.94
2022-09-20T00:09:05.705Z,9.91
2022-09-20T00:14:27.587Z,9.81
2022-09-20T00:19:49.333Z,9.72
2022-09-20T00:25:11.040Z,9.78
2022-09-20T00:30:34.015Z,9.86
2022-09-20T00:35:55.693Z,9.83
2022-09-20T00:41:17.398Z,9.75
2022-09-20T00:46:45.116Z,9.63
2022-09-20T00:52:06.967Z,9.66
2022-09-20T00:57:35.100Z,9.83
2022-09-20T01:03:03.512Z,9.90
2022-09-20T01:08:25.566Z,10.01
2022-09-20T01:13:47.265Z,10.09
2022-09-20T01:19:20.168Z,10.08
2022-09-20T01:24:59.796Z,9.99
2022-09-20T01:30:24.937Z,9.97
2022-09-20T01:35:53.744Z,9.78
2022-09-20T01:41:24.540Z,9.79
2022-09-20T01:46:53.653Z,9.66
2022-09-20T01:52:21.270Z,9.67
2022-09-20T01:58:20.635Z,9.72
2022-09-20T02:04:11.750Z,9.69
2022-09-20T02:10:17.420Z,9.75
2022-09-20T02:16:16.881Z,9.72
2022-09-20T02:21:46.225Z,9.75
2022-09-20T02:27:16.297Z,9.78
2022-09-20T02:33:05.665Z,9.97
2022-09-20T02:38:56.604Z,9.87
2022-09-20T02:44:55.924Z,9.87
2022-09-20T02:50:41.131Z,9.89
2022-09-20T02:56:26.116Z,10.08
2022-09-20T03:02:01.039Z,10.02
2022-09-20T03:07:47.800Z,9.86
2022-09-20T03:13:31.305Z,9.90
2022-09-20T03:19:06.750Z,9.85
2022-09-20T03:24:33.324Z,9.85
2022-09-20T03:30:33.784Z,9.95
2022-09-20T03:36:24.436Z,10.06
2022-09-20T03:42:11.874Z,10.21
2022-09-20T03:47:58.457Z,10.44
2022-09-20T03:54:17.193Z,10.28
2022-09-20T03:59:59.567Z,10.22
2022-09-20T04:05:48.612Z,10.24
2022-09-20T04:11:30.156Z,10.42
2022-09-20T04:17:05.883Z,10.39
2022-09-20T04:22:29.309Z,10.57
2022-09-20T04:27:57.637Z,10.55
2022-09-20T04:33:27.907Z,10.62
2022-09-20T04:39:01.922Z,10.49
2022-09-20T04:44:52.457Z,10.44
2022-09-20T04:50:52.059Z,10.53
2022-09-20T04:56:28.367Z,10.43
2022-09-20T05:02:12.173Z,10.38
2022-09-20T05:07:49.101Z,10.27
2022-09-20T05:13:34.274Z,10.31
2022-09-20T05:19:09.104Z,10.40
2022-09-20T05:25:20.657Z,10.44
2022-09-20T05:30:54.093Z,10.30
2022-09-20T05:36:54.652Z,10.19
2022-09-20T05:42:32.682Z,10.10
2022-09-20T05:48:11.863Z,10.04
2022-09-20T05:53:56.804Z,10.12
2022-09-20T05:59:30.449Z,10.26
2022-09-20T06:05:16.716Z,10.33
2022-09-20T06:11:07.671Z,10.57
2022-09-20T06:17:16.243Z,10.49
2022-09-20T06:22:47.299Z,10.43
2022-09-20T06:28:17.565Z,10.50
2022-09-20T06:33:57.295Z,10.67
2022-09-20T06:39:49.957Z,10.67
2022-09-20T06:45:11.719Z,10.50
2022-09-20T06:50:36.208Z,10.72
2022-09-20T06:55:58.947Z,10.48
2022-09-20T07:01:29.791Z,10.61
2022-09-20T07:06:59.360Z,10.63
2022-09-20T07:12:21.221Z,10.83
2022-09-20T07:17:45.811Z,11.05
2022-09-20T07:23:08.134Z,11.07
2022-09-20T07:28:31.964Z,11.10
2022-09-20T07:33:53.974Z,11.05
2022-09-20T07:39:16.766Z,10.99
2022-09-20T07:44:42.308Z,11.09
2022-09-20T07:50:04.480Z,11.34
2022-09-20T07:55:26.540Z,11.39
2022-09-20T08:00:55.876Z,11.35
2022-09-20T08:06:18.730Z,11.34
2022-09-20T08:11:42.829Z,11.46
2022-09-20T08:17:04.553Z,11.47
2022-09-20T08:22:26.266Z,11.58
2022-09-20T08:27:54.486Z,11.66
2022-09-20T08:33:16.243Z,11.61
2022-09-20T08:44:27.955Z,11.74
2022-09-20T08:49:56.736Z,11.78
2022-09-20T08:55:24.858Z,11.92
2022-09-20T09:00:47.245Z,12.05
2022-09-20T09:06:18.213Z,12.02
2022-09-20T09:11:45.861Z,12.12
2022-09-20T09:17:11.587Z,12.15
2022-09-20T09:22:42.640Z,12.18
2022-09-20T09:28:07.255Z,12.14
2022-09-20T09:33:30.958Z,12.15
2022-09-20T09:39:38.220Z,12.28
2022-09-20T09:45:43.118Z,12.32
2022-09-20T09:51:15.324Z,12.40
2022-09-20T09:57:15.783Z,12.43
2022-09-20T10:02:53.044Z,12.50
2022-09-20T10:08:45.933Z,12.57
2022-09-20T10:14:29.617Z,12.61
2022-09-20T10:20:08.082Z,12.71
2022-09-20T10:26:08.769Z,12.73
2022-09-20T10:31:38.204Z,12.71
2022-09-20T10:37:01.213Z,12.88
2022-09-20T10:43:00.496Z,13.02
2022-09-20T10:48:31.713Z,13.02
2022-09-20T10:54:14.200Z,13.02
2022-09-20T11:00:08.392Z,13.01
2022-09-20T11:06:01.892Z,13.03
2022-09-20T11:11:31.038Z,13.10
2022-09-20T11:17:10.698Z,13.16
2022-09-20T11:22:48.136Z,13.33
2022-09-20T11:28:45.876Z,13.38
2022-09-20T11:34:31.931Z,13.52
2022-09-20T11:39:55.489Z,13.55
2022-09-20T11:45:17.678Z,13.59
2022-09-20T11:50:51.148Z,13.62
2022-09-20T11:56:30.904Z,13.65
2022-09-20T12:01:56.524Z,13.74
2022-09-20T12:07:39.653Z,13.95
2022-09-20T12:13:25.042Z,13.95
2022-09-20T12:18:53.891Z,13.96
2022-09-20T12:24:19.955Z,13.94
2022-09-20T12:29:47.590Z,14.23
2022-09-20T12:35:38.943Z,14.43
2022-09-20T12:41:08.301Z,14.53
2022-09-20T12:46:34.613Z,14.54
2022-09-20T12:52:14.819Z,14.57
2022-09-20T12:57:36.630Z,14.56
2022-09-20T13:02:59.678Z,14.61
2022-09-20T13:08:24.994Z,14.61
2022-09-20T13:13:54.569Z,14.58
2022-09-20T13:19:29.260Z,14.67
2022-09-20T13:24:56.879Z,14.67
2022-09-20T13:30:25.192Z,14.67
2022-09-20T13:35:49.929Z,14.60
2022-09-20T13:41:12.707Z,14.59
2022-09-20T13:46:44.329Z,14.51
2022-09-20T13:52:30.518Z,14.42
2022-09-20T13:57:53.920Z,14.39
2022-09-20T14:03:20.088Z,14.32
2022-09-20T14:08:44.549Z,14.17
2022-09-20T14:14:07.996Z,13.94
2022-09-20T14:19:37.235Z,13.82
2022-09-20T14:25:18.670Z,13.69
2022-09-20T14:30:40.386Z,13.49
2022-09-20T14:36:02.139Z,13.47
2022-09-20T14:41:34.128Z,13.53
2022-09-20T14:46:56.708Z,13.46
2022-09-20T14:52:34.761Z,13.51
2022-09-20T14:57:59.734Z,13.57
2022-09-20T15:03:27.142Z,13.54
2022-09-20T15:08:48.851Z,13.60
2022-09-20T15:14:10.636Z,13.66
2022-09-20T15:19:32.803Z,13.72
2022-09-20T15:24:54.497Z,13.95
2022-09-20T15:30:19.611Z,14.07
2022-09-20T15:35:43.302Z,14.19
2022-09-20T15:41:05.880Z,14.31
2022-09-20T15:46:27.898Z,14.38
2022-09-20T15:51:50.432Z,14.34
2022-09-20T15:57:12.261Z,14.20
2022-09-20T16:02:34.013Z,14.05
2022-09-20T16:07:58.074Z,13.92
2022-09-20T16:13:19.863Z,13.84
2022-09-20T16:19:00.480Z,13.70
2022-09-20T16:24:24.404Z,13.68
2022-09-20T16:29:46.187Z,13.58
2022-09-20T16:35:08.100Z,13.50
2022-09-20T16:40:30.155Z,13.39
2022-09-20T16:46:00.543Z,13.32
2022-09-20T16:51:25.845Z,13.25
2022-09-20T16:56:49.496Z,13.22
2022-09-20T17:02:12.534Z,13.16
2022-09-20T17:07:34.349Z,13.14
2022-09-20T17:12:59.436Z,13.03
2022-09-20T17:18:21.154Z,13.01
2022-09-20T17:23:50.853Z,12.98
2022-09-20T17:29:15.584Z,12.98
2022-09-20T17:34:37.648Z,12.90
2022-09-20T17:40:01.911Z,12.81
2022-09-20T17:45:23.787Z,12.75
2022-09-20T17:50:56.036Z,12.77
2022-09-20T17:56:17.868Z,12.86
2022-09-20T18:01:40.200Z,12.91
2022-09-20T18:07:03.497Z,12.68
2022-09-20T18:12:25.225Z,12.64
2022-09-20T18:17:50.208Z,12.62
2022-09-20T18:23:14.513Z,12.56
2022-09-20T18:28:36.249Z,12.53
2022-09-20T18:34:02.681Z,12.46
2022-09-20T18:39:29.379Z,12.46
2022-09-20T18:44:51.162Z,12.42
2022-09-20T18:50:13.160Z,12.41
2022-09-20T18:55:35.653Z,12.39
2022-09-20T19:01:26.618Z,12.30
2022-09-20T19:06:59.367Z,12.20
2022-09-20T19:12:29.215Z,12.10
2022-09-20T19:18:12.577Z,11.99
2022-09-20T19:23:40.982Z,12.03
2022-09-20T19:29:02.952Z,11.81
2022-09-20T19:34:26.150Z,11.67
2022-09-20T19:40:00.957Z,11.57
2022-09-20T19:45:44.705Z,11.49
2022-09-20T19:51:11.544Z,11.56
2022-09-20T19:56:48.269Z,11.41
2022-09-20T20:02:11.768Z,11.34
2022-09-20T20:07:46.355Z,11.35
2022-09-20T20:13:38.648Z,11.37
2022-09-20T20:19:19.847Z,11.21
2022-09-20T20:24:52.016Z,11.11
2022-09-20T20:30:13.881Z,11.05
2022-09-20T20:35:37.354Z,11.13
2022-09-20T20:41:03.873Z,11.13
2022-09-20T20:46:25.980Z,11.16
2022-09-20T20:51:48.078Z,11.23
2022-09-20T20:57:09.783Z,11.08
2022-09-20T21:02:31.572Z,11.09
2022-09-20T21:07:53.815Z,10.97
2022-09-20T21:13:15.550Z,10.87
2022-09-20T21:18:38.849Z,10.72
2022-09-20T21:24:03.152Z,10.66
2022-09-20T21:29:24.915Z,10.53
2022-09-20T21:34:46.629Z,10.73
2022-09-20T21:40:10.009Z,10.70
2022-09-20T21:45:31.746Z,10.59
2022-09-20T21:51:00.569Z,10.48
2022-09-20T21:56:22.316Z,10.48
2022-09-20T22:01:44.064Z,10.60
2022-09-20T22:07:05.811Z,10.60
2022-09-20T22:12:27.497Z,10.48
2022-09-20T22:17:49.187Z,10.34
2022-09-20T22:23:11.654Z,10.34
2022-09-20T22:28:34.013Z,10.29
2022-09-20T22:33:58.411Z,10.16
2022-09-20T22:39:20.110Z,9.91
2022-09-20T22:44:41.819Z,9.74
2022-09-20T22:50:05.549Z,9.69
2022-09-20T22:55:27.348Z,9.78
2022-09-20T23:00:51.021Z,9.87
2022-09-20T23:06:19.760Z,9.89
2022-09-20T23:11:42.731Z,10.00
2022-09-20T23:17:04.481Z,9.99
2022-09-20T23:22:26.174Z,9.73
2022-09-20T23:27:47.878Z,9.76
2022-09-20T23:33:09.661Z,9.70
2022-09-20T23:38:31.325Z,9.74
2022-09-20T23:43:53.193Z,9.44
2022-09-20T23:49:15.080Z,9.25
2022-09-20T23:54:36.838Z,9.50
2022-09-20T23:59:59.244Z,9.22
